Login

BugiaNen
1 activity; - Last training unit 04/07/2019
04/07/2019 Show to everybody 04-07-2019 23.19 508 01:57:30 11.84 Km\h MDE Mangata
03/07/2019 Show to everybody 03-07-2019 24.78 530 02:09:53 11.45 Km\h MDE Mangata
02/07/2019 Show to everybody 02-07-2019 21.17 493 02:03:50 10.26 Km\h MDE Mangata
30/06/2019 Show to everybody 30-06-2019 13 Laghi trek 7.57 253 02:42:44 2.79 Km\h Surly Karate Monkey
04/06/2016 Show to everybody 04-06-2016 col begino - gondran 38.26 1196 05:18:20 7.21 Km\h Trek RumbleFish
18/07/2015 Show to everybody 18-07-2015 strada dell\'assietta 72.86 2755 07:42:26 9.45 Km\h Surly Karate Monkey
30/05/2015 Show to everybody 30-05-2015 lago fallere 40.84 1736 06:21:18 6.43 Km\h Trek RumbleFish
19/03/2015 Show to everybody 19-03-2015 24 679 01:41:36 14.17 Km\h Surly Karate Monkey
18/03/2015 Show to everybody 18-03-2015 23.31 742 01:38:43 14.17 Km\h Surly Karate Monkey
12/03/2015 Show to everybody 12-03-2015 24.47 675 01:43:38 14.16 Km\h Surly Karate Monkey
11/03/2015 Show to everybody 11-03-2015 23.99 623 01:42:59 13.98 Km\h Surly Karate Monkey
10/03/2015 Show to everybody 10-03-2015 24.38 713 01:38:35 14.84 Km\h Surly Karate Monkey
05/03/2015 Show to everybody 05-03-2015 23.77 519 01:33:46 15.21 Km\h Surly Karate Monkey
04/03/2015 Show to everybody 04-03-2015 23.57 684 01:37:15 14.54 Km\h Surly Karate Monkey
03/03/2015 Show to everybody 03-03-2015 23.33 698 01:36:25 14.52 Km\h Surly Karate Monkey
26/02/2015 Show to everybody 26-02-2015 23.53 668 01:38:36 14.32 Km\h Surly Karate Monkey
25/02/2015 Show to everybody 25-02-2015 23.38 701 01:43:04 13.61 Km\h Surly Karate Monkey
24/02/2015 Show to everybody 24-02-2015 23.26 593 01:45:49 13.19 Km\h Surly Karate Monkey
21/02/2015 Show to everybody 21-02-2015 63.06 1547 04:34:39 13.78 Km\h Surly Karate Monkey
20/02/2015 Show to everybody 20-02-2015 23.46 710 01:39:30 14.15 Km\h Surly Karate Monkey
19/02/2015 Show to everybody 19-02-2015 23.4 596 01:38:52 14.2 Km\h Surly Karate Monkey
18/02/2015 Show to everybody 18-02-2015 23.58 654 01:35:53 14.76 Km\h Surly Karate Monkey
17/02/2015 Show to everybody 17-02-2015 22.65 521 01:25:01 15.98 Km\h Surly Karate Monkey
16/02/2015 Show to everybody 16-02-2015 23.62 553 01:39:08 14.29 Km\h Surly Karate Monkey
14/02/2015 Show to everybody 14-02-2015 68.18 1647 04:53:05 13.96 Km\h Surly Karate Monkey
13/02/2015 Show to everybody 13-02-2015 22.87 530 01:40:39 13.63 Km\h Surly Karate Monkey
12/02/2015 Show to everybody 12-02-2015 23.54 635 01:44:34 13.51 Km\h Surly Karate Monkey
04/02/2015 Show to everybody 04-02-2015 22.45 525 01:35:02 14.17 Km\h Surly Karate Monkey
03/02/2015 Show to everybody 03-02-2015 22.07 496 01:35:38 13.84 Km\h Surly Karate Monkey
23/03/2013 Show to everybody 23-03-2013 Monte Baron 32.91 1027 02:40:33 12.3 Km\h Trek RumbleFish
16/03/2013 Show to everybody 16-03-2013 Monte Calvo 36.6 1172 02:35:14 14.15 Km\h Trek RumbleFish
30/06/2012 Show to everybody 30-06-2012 Tete de Viraysse 29.23 1581 05:41:31 5.14 Km\h
28/06/2012 Show to everybody 28-06-2012 Allenamento 27.38 821 02:24:25 11.38 Km\h
27/06/2012 Show to everybody 27-06-2012 Allenamento 28.22 1208 02:16:33 12.4 Km\h
26/06/2012 Show to everybody 26-06-2012 Allenamento 26.28 761 02:19:09 11.33 Km\h
23/06/2012 Show to everybody 23-06-2012 Plateau d\'Oreac 44.59 1927 06:48:58 6.54 Km\h
21/06/2012 Show to everybody 21-06-2012 Allenamento 27.84 728 02:14:19 12.44 Km\h
20/06/2012 Show to everybody 20-06-2012 Allenamento 27.68 710 02:14:44 12.33 Km\h
18/06/2012 Show to everybody 18-06-2012 Allenamento 27.98 815 02:19:44 12.02 Km\h
16/06/2012 Show to everybody 16-06-2012 Strada dell\' Assietta 62.43 2531 06:56:57 8.98 Km\h
14/06/2012 Show to everybody 14-06-2012 Allenamento 27.39 791 02:09:41 12.67 Km\h
13/06/2012 Show to everybody 13-06-2012 Allenamento 27.43 749 02:13:24 12.34 Km\h
12/06/2012 Show to everybody 12-06-2012 Allenamento 26.95 742 02:04:49 12.96 Km\h
08/06/2012 Show to everybody 08-06-2012 Traversata Collina 48.14 1155 04:48:12 10.02 Km\h
06/06/2012 Show to everybody 06-06-2012 Allenamento 26.51 780 02:17:11 11.59 Km\h
05/06/2012 Show to everybody 05-06-2012 Allenamento 22.69 587 01:37:08 14.01 Km\h
04/06/2012 Show to everybody 04-06-2012 Allenamento 22.16 596 01:43:43 12.82 Km\h
02/06/2012 Show to everybody 02-06-2012 Fort de la Croix de Bretagne 37.86 1803 05:59:44 6.31 Km\h
01/06/2012 Show to everybody 01-06-2012 Allenamento 21.37 518 01:42:26 12.52 Km\h
01/01/1970 Show to everybody 03-08-2017 Ciclovia del Reno 0 0 0 Km\h Surly Karate Monkey
01/01/1970 Show to everybody 03-08-2017 Ciclovia del Reno 0 0 0 Km\h Surly Karate Monkey
Training units 19
Kilometers 544 Km
Vertical gain 13 632 mt
Hours of riding 56:37:55
Average speed 10.3 Km/h
average HR 107
Points 2884
Live Tracking »

Trek RumbleFish 583:08:57 5234.7 Km
Surly Karate Monkey 838:59:59 24627.42 Km
MDE Mangata 93:12:28 851.23 Km

 
If you stop following this users you will not be able to compare your trainings with his

Now you follow this users and you can compare your trainings


MTB-Forum.it | 2012-2020 Training Camp v.1.6 rev 05